createdAt,value
2017-06-02T00:00:48.162Z,63.83
2017-06-02T00:01:48.141Z,64.02
2017-06-02T00:02:48.121Z,64.4
2017-06-02T00:03:48.102Z,64.02
2017-06-02T00:04:48.078Z,64.12
2017-06-02T00:05:48.064Z,64.59
2017-06-02T00:06:48.043Z,64.79
2017-06-02T00:07:48.030Z,64.5
2017-06-02T00:08:48.005Z,64.5
2017-06-02T00:09:47.983Z,64.22
2017-06-02T00:10:48.012Z,64.4
2017-06-02T00:11:47.639Z,64.5
2017-06-02T00:12:47.921Z,64.12
2017-06-02T00:13:47.897Z,63.92
2017-06-02T00:14:47.881Z,64.22
2017-06-02T00:15:47.864Z,63.92
2017-06-02T00:16:47.541Z,63.83
2017-06-02T00:17:47.828Z,64.12
2017-06-02T00:18:47.798Z,63.73
2017-06-02T00:19:47.783Z,63.92
2017-06-02T00:20:47.810Z,63.92
2017-06-02T00:21:47.741Z,63.83
2017-06-02T00:22:47.724Z,63.73
2017-06-02T00:23:47.696Z,63.92
2017-06-02T00:24:47.681Z,64.22
2017-06-02T00:25:47.658Z,64.02
2017-06-02T00:26:47.640Z,63.83
2017-06-02T00:27:47.630Z,63.8
2017-06-02T00:28:47.598Z,63.7
2017-06-02T00:29:47.273Z,63.8
2017-06-02T00:30:47.556Z,64.18
2017-06-02T00:31:47.535Z,64.02
2017-06-02T00:32:47.518Z,64.02
2017-06-02T00:33:47.194Z,63.99
2017-06-02T00:34:47.477Z,63.8
2017-06-02T00:35:47.456Z,64.02
2017-06-02T00:36:47.535Z,63.6
2017-06-02T00:37:47.413Z,63.6
2017-06-02T00:38:47.397Z,63.42
2017-06-02T00:39:47.127Z,63.32
2017-06-02T00:40:47.355Z,63.22
2017-06-02T00:41:47.335Z,63.51
2017-06-02T00:42:47.317Z,63.6
2017-06-02T00:43:47.292Z,63.51
2017-06-02T00:44:47.276Z,63.51
2017-06-02T00:45:47.253Z,63.6
2017-06-02T00:46:47.232Z,63.51
2017-06-02T00:47:47.209Z,63.51
2017-06-02T00:48:47.442Z,63.7
2017-06-02T00:49:47.171Z,63.22
2017-06-02T00:50:47.148Z,63.51
2017-06-02T00:51:47.130Z,63.7
2017-06-02T00:52:47.113Z,63.99
2017-06-02T00:53:47.095Z,63.89
2017-06-02T00:54:46.769Z,63.8
2017-06-02T00:55:46.748Z,63.51
2017-06-02T00:56:47.030Z,64.09
2017-06-02T00:57:47.013Z,64.09
2017-06-02T00:58:47.040Z,64.18
2017-06-02T00:59:46.968Z,64.18
2017-06-02T01:00:46.951Z,64.47
2017-06-02T01:01:46.923Z,64.09
2017-06-02T01:02:46.910Z,64.47
2017-06-02T01:03:46.887Z,64.76
2017-06-02T01:04:46.871Z,63.99
2017-06-02T01:05:46.849Z,64.66
2017-06-02T01:06:46.828Z,64.66
2017-06-02T01:07:46.803Z,64.95
2017-06-02T01:08:46.791Z,65.14
2017-06-02T01:09:46.764Z,65.05
2017-06-02T01:10:46.745Z,65.14
2017-06-02T01:11:46.724Z,65.52
2017-06-02T01:12:46.704Z,65.62
2017-06-02T01:13:46.687Z,65.42
2017-06-02T01:14:46.668Z,65.71
2017-06-02T01:15:46.640Z,65.71
2017-06-02T01:16:46.618Z,65.81
2017-06-02T01:17:46.602Z,65.42
2017-06-02T01:18:46.587Z,65.52
2017-06-02T01:19:46.570Z,66.16
2017-06-02T01:20:46.542Z,66.38
2017-06-02T01:21:46.522Z,65.88
2017-06-02T01:22:46.498Z,66.25
2017-06-02T01:23:46.485Z,66.58
2017-06-02T01:24:46.508Z,66.86
2017-06-02T01:25:46.136Z,66.54
2017-06-02T01:26:46.419Z,66.93
2017-06-02T01:27:46.405Z,66.93
2017-06-02T01:28:46.377Z,66.64
2017-06-02T01:29:46.355Z,67.02
2017-06-02T01:30:46.340Z,67.11
2017-06-02T01:31:46.313Z,66.83
2017-06-02T01:32:46.300Z,67.21
2017-06-02T01:33:46.273Z,67.31
2017-06-02T01:34:46.255Z,67.5
2017-06-02T01:35:46.234Z,67.6
2017-06-02T01:36:46.229Z,67.21
2017-06-02T01:37:46.198Z,67.02
2017-06-02T01:38:46.176Z,67.31
2017-06-02T01:39:46.157Z,67.5
2017-06-02T01:40:46.132Z,67.31
2017-06-02T01:41:46.115Z,67.79
2017-06-02T01:42:46.098Z,67.88
2017-06-02T01:43:46.070Z,67.41
2017-06-02T01:44:46.051Z,67.79
2017-06-02T01:45:46.036Z,67.79
2017-06-02T01:46:46.011Z,67.79
2017-06-02T01:47:45.992Z,67.6
2017-06-02T01:48:45.970Z,67.41
2017-06-02T01:49:45.945Z,67.79
2017-06-02T01:50:45.926Z,67.6
2017-06-02T01:51:45.905Z,67.69
2017-06-02T01:52:45.882Z,68.04
2017-06-02T01:53:45.864Z,67.98
2017-06-02T01:54:45.844Z,67.88
2017-06-02T01:55:45.822Z,68.52
2017-06-02T01:56:45.808Z,68.42
2017-06-02T01:57:45.781Z,68.52
2017-06-02T01:58:45.774Z,68.23
2017-06-02T01:59:45.745Z,67.98
2017-06-02T02:00:45.720Z,68.33
2017-06-02T02:01:45.698Z,68.71
2017-06-02T02:02:45.677Z,68.62
2017-06-02T02:03:45.679Z,68.42
2017-06-02T02:04:45.641Z,68.62
2017-06-02T02:05:45.615Z,69.09
2017-06-02T02:06:45.599Z,68.42
2017-06-02T02:07:45.581Z,68.42
2017-06-02T02:08:45.558Z,68.8
2017-06-02T02:09:45.539Z,68.9
2017-06-02T02:10:45.513Z,69.19
2017-06-02T02:11:45.496Z,69.29
2017-06-02T02:12:45.471Z,69.29
2017-06-02T02:13:45.752Z,69.48
2017-06-02T02:14:45.431Z,69.38
2017-06-02T02:15:45.412Z,69.64
2017-06-02T02:16:45.393Z,69.54
2017-06-02T02:17:45.419Z,69.82
2017-06-02T02:18:45.348Z,69.92
2017-06-02T02:19:45.327Z,70.3
2017-06-02T02:20:45.307Z,69.92
2017-06-02T02:21:45.286Z,70.01
2017-06-02T02:22:45.275Z,69.92
2017-06-02T02:23:45.244Z,70.21
2017-06-02T02:24:45.226Z,70.21
2017-06-02T02:25:45.215Z,69.82
2017-06-02T02:26:45.181Z,69.92
2017-06-02T02:27:45.161Z,70.59
2017-06-02T02:28:45.142Z,70.59
2017-06-02T02:29:45.169Z,70.78
2017-06-02T02:30:45.099Z,70.5
2017-06-02T02:31:45.080Z,70.59
2017-06-02T02:32:45.063Z,70.5
2017-06-02T02:33:45.039Z,70.68
2017-06-02T02:34:45.024Z,70.5
2017-06-02T02:35:45.001Z,70.59
2017-06-02T02:36:44.992Z,70.59
2017-06-02T02:37:44.969Z,70.5
2017-06-02T02:38:44.940Z,70.78
2017-06-02T02:39:44.916Z,71.07
2017-06-02T02:40:44.893Z,71.07
2017-06-02T02:41:44.879Z,70.97
2017-06-02T02:42:44.851Z,71.16
2017-06-02T02:43:44.833Z,71.16
2017-06-02T02:44:44.813Z,71.07
2017-06-02T02:45:44.789Z,70.87
2017-06-02T02:46:44.768Z,70.78
2017-06-02T02:47:44.753Z,71.55
2017-06-02T02:48:44.725Z,71.93
2017-06-02T02:49:44.753Z,71.45
2017-06-02T02:50:44.688Z,71.36
2017-06-02T02:51:44.664Z,71.36
2017-06-02T02:52:44.644Z,71.45
2017-06-02T02:53:44.621Z,71.61
2017-06-02T02:54:44.604Z,72.02
2017-06-02T02:55:44.579Z,72.02
2017-06-02T02:56:44.558Z,71.99
2017-06-02T02:57:44.538Z,72.02
2017-06-02T02:58:44.519Z,72.02
2017-06-02T02:59:44.500Z,72.12
2017-06-02T03:00:44.477Z,72.12
2017-06-02T03:01:44.458Z,72.18
2017-06-02T03:02:44.435Z,72.18
2017-06-02T03:03:44.463Z,72.56
2017-06-02T03:04:44.392Z,72.56
2017-06-02T03:05:44.370Z,72.08
2017-06-02T03:06:44.355Z,72.37
2017-06-02T03:07:44.330Z,72.28
2017-06-02T03:08:44.311Z,72.08
2017-06-02T03:09:44.286Z,72.28
2017-06-02T03:10:44.321Z,71.99
2017-06-02T03:11:44.251Z,72.18
2017-06-02T03:12:44.224Z,72.18
2017-06-02T03:13:44.206Z,72.56
2017-06-02T03:14:44.182Z,72.28
2017-06-02T03:15:44.168Z,72.28
2017-06-02T03:16:44.148Z,72.47
2017-06-02T03:17:44.120Z,72.37
2017-06-02T03:18:44.102Z,72.28
2017-06-02T03:19:44.081Z,72.56
2017-06-02T03:20:44.060Z,72.47
2017-06-02T03:21:44.035Z,72.37
2017-06-02T03:22:44.014Z,72.28
2017-06-02T03:23:43.997Z,72.56
2017-06-02T03:24:43.975Z,72.94
2017-06-02T03:25:43.955Z,72.75
2017-06-02T03:26:43.935Z,72.85
2017-06-02T03:27:43.912Z,73.04
2017-06-02T03:28:43.890Z,72.75
2017-06-02T03:29:43.869Z,72.66
2017-06-02T03:30:43.869Z,72.75
2017-06-02T03:31:43.879Z,72.85
2017-06-02T03:32:43.810Z,72.94
2017-06-02T03:33:43.782Z,73.33
2017-06-02T03:34:43.761Z,73.33
2017-06-02T03:35:43.744Z,73.14
2017-06-02T03:36:43.725Z,73.23
2017-06-02T03:37:43.698Z,73.43
2017-06-02T03:38:43.679Z,73.04
2017-06-02T03:39:43.661Z,73.04
2017-06-02T03:40:43.640Z,73.23
2017-06-02T03:41:43.623Z,73.14
2017-06-02T03:42:43.596Z,73.43
2017-06-02T03:43:43.577Z,73.33
2017-06-02T03:44:43.553Z,73.23
2017-06-02T03:45:43.532Z,73.14
2017-06-02T03:46:43.511Z,72.85
2017-06-02T03:47:43.490Z,73.04
2017-06-02T03:48:43.475Z,72.66
2017-06-02T03:49:43.501Z,72.66
2017-06-02T03:50:43.130Z,72.75
2017-06-02T03:51:43.408Z,73.04
2017-06-02T03:52:43.387Z,72.75
2017-06-02T03:53:43.413Z,72.75
2017-06-02T03:54:43.348Z,72.88
2017-06-02T03:55:43.323Z,72.66
2017-06-02T03:56:43.304Z,72.94
2017-06-02T03:57:43.287Z,72.69
2017-06-02T03:58:43.262Z,72.31
2017-06-02T03:59:43.246Z,72.5
2017-06-02T04:00:43.224Z,72.22
2017-06-02T04:01:43.201Z,72.6
2017-06-02T04:02:43.181Z,72.06
2017-06-02T04:03:43.410Z,71.87
2017-06-02T04:04:43.137Z,71.58
2017-06-02T04:05:43.120Z,71.3
2017-06-02T04:06:43.101Z,71.01
2017-06-02T04:07:43.071Z,70.95
2017-06-02T04:08:43.106Z,70.56
2017-06-02T04:09:43.041Z,70.09
2017-06-02T04:10:43.024Z,69.99
2017-06-02T04:11:42.997Z,70.09
2017-06-02T04:12:42.978Z,69.6
2017-06-02T04:13:42.966Z,69.6
2017-06-02T04:14:42.940Z,69.83
2017-06-02T04:15:42.915Z,69.07
2017-06-02T04:16:42.896Z,69.35
2017-06-02T04:17:42.877Z,68.59
2017-06-02T04:18:42.855Z,68.78
2017-06-02T04:19:42.834Z,67.82
2017-06-02T04:20:42.817Z,67.76
2017-06-02T04:21:42.794Z,67.47
2017-06-02T04:22:42.776Z,67.85
2017-06-02T04:23:42.754Z,67.38
2017-06-02T04:24:42.739Z,67.18
2017-06-02T04:25:42.726Z,67.28
2017-06-02T04:26:42.706Z,66.83
2017-06-02T04:27:42.683Z,67.02
2017-06-02T04:28:42.664Z,66.64
2017-06-02T04:29:42.340Z,66.39
2017-06-02T04:30:42.620Z,65.91
2017-06-02T04:31:42.601Z,65.52
2017-06-02T04:32:42.586Z,65.43
2017-06-02T04:33:42.561Z,65.14
2017-06-02T04:34:42.598Z,65.14
2017-06-02T04:35:42.522Z,64.95
2017-06-02T04:36:42.508Z,65.14
2017-06-02T04:37:42.489Z,64.85
2017-06-02T04:38:42.468Z,65.05
2017-06-02T04:39:42.450Z,64.09
2017-06-02T04:40:42.431Z,64.59
2017-06-02T04:41:42.416Z,63.73
2017-06-02T04:42:42.393Z,63.92
2017-06-02T04:43:42.427Z,63.73
2017-06-02T04:44:42.353Z,63.92
2017-06-02T04:45:42.385Z,63.28
2017-06-02T04:46:42.316Z,62.9
2017-06-02T04:47:42.296Z,62.42
2017-06-02T04:48:41.977Z,62.61
2017-06-02T04:49:42.267Z,62.61
2017-06-02T04:50:42.243Z,62.13
2017-06-02T04:51:42.232Z,61.97
2017-06-02T04:52:42.209Z,62.16
2017-06-02T04:53:42.188Z,61.58
2017-06-02T04:54:42.172Z,62.16
2017-06-02T04:55:42.148Z,62.13
2017-06-02T04:56:42.134Z,62.13
2017-06-02T04:57:42.117Z,62.23
2017-06-02T04:58:42.103Z,61.84
2017-06-02T04:59:42.076Z,62.13
2017-06-02T05:00:42.057Z,62.13
2017-06-02T05:01:42.039Z,62.13
2017-06-02T05:02:42.020Z,61.94
2017-06-02T05:03:42.001Z,61.58
2017-06-02T05:04:41.986Z,61.4
2017-06-02T05:05:41.967Z,60.91
2017-06-02T05:06:41.958Z,61.04
2017-06-02T05:07:41.929Z,61.04
2017-06-02T05:08:41.908Z,60.85
2017-06-02T05:09:41.894Z,60.46
2017-06-02T05:10:41.876Z,59.99
2017-06-02T05:11:41.860Z,59.89
2017-06-02T05:12:41.841Z,60.11
2017-06-02T05:13:41.820Z,59.63
2017-06-02T05:14:41.800Z,59.44
2017-06-02T05:15:41.786Z,58.89
2017-06-02T05:16:41.766Z,58.98
2017-06-02T05:17:41.746Z,58.6
2017-06-02T05:18:41.730Z,57.92
2017-06-02T05:19:41.716Z,57.95
2017-06-02T05:20:41.698Z,57.37
2017-06-02T05:21:41.676Z,56.92
2017-06-02T05:22:41.662Z,56.92
2017-06-02T05:23:41.693Z,56.15
2017-06-02T05:24:41.628Z,55.89
2017-06-02T05:25:41.611Z,56.18
2017-06-02T05:26:41.893Z,55.51
2017-06-02T05:27:41.578Z,55.15
2017-06-02T05:28:41.561Z,54.76
2017-06-02T05:29:41.543Z,54.21
2017-06-02T05:30:41.531Z,53.83
2017-06-02T05:31:41.515Z,53.92
2017-06-02T05:32:41.504Z,53.66
2017-06-02T05:33:41.483Z,52.79
2017-06-02T05:34:41.468Z,52.53
2017-06-02T05:35:41.453Z,51.65
2017-06-02T05:36:41.428Z,51.37
2017-06-02T05:37:41.415Z,51.29
2017-06-02T05:38:41.411Z,50.71
2017-06-02T05:39:41.386Z,50.71
2017-06-02T05:40:41.372Z,50.81
2017-06-02T05:41:41.369Z,49.95
2017-06-02T05:42:41.344Z,49.49
2017-06-02T05:43:41.333Z,49.58
2017-06-02T05:44:41.386Z,49.58
2017-06-02T05:45:41.305Z,49.55
2017-06-02T05:46:41.284Z,49.68
2017-06-02T05:47:40.970Z,49.29
2017-06-02T05:48:41.255Z,49.29
2017-06-02T05:49:41.239Z,49
2017-06-02T05:50:41.231Z,48.81
2017-06-02T05:51:41.215Z,48.83
2017-06-02T05:52:41.196Z,48.35
2017-06-02T05:53:41.181Z,47.5
2017-06-02T05:54:41.169Z,47.5
2017-06-02T05:55:41.157Z,47.14
2017-06-02T05:56:41.143Z,46.36
2017-06-02T05:57:41.182Z,46.75
2017-06-02T05:58:41.164Z,45.98
2017-06-02T05:59:41.108Z,45.88
2017-06-02T06:00:41.092Z,45.68
2017-06-02T06:01:41.079Z,45.42
2017-06-02T06:02:41.062Z,45.22
2017-06-02T06:03:41.046Z,45.22
2017-06-02T06:04:40.735Z,45.03
2017-06-02T06:05:41.022Z,44.93
2017-06-02T06:06:41.011Z,44.57
2017-06-02T06:07:40.993Z,43.99
2017-06-02T06:08:40.980Z,44.09
2017-06-02T06:09:40.971Z,43.72
2017-06-02T06:10:41.011Z,43.43
2017-06-02T06:11:40.951Z,43.52
2017-06-02T06:12:40.933Z,43.41
2017-06-02T06:13:40.921Z,43.33
2017-06-02T06:14:40.909Z,42.92
2017-06-02T06:15:40.896Z,43.02
2017-06-02T06:16:40.886Z,43.02
2017-06-02T06:17:40.877Z,42.92
2017-06-02T06:18:40.865Z,42.85
2017-06-02T06:19:40.855Z,42.85
2017-06-02T06:20:40.849Z,42.17
2017-06-02T06:21:40.833Z,41.41
2017-06-02T06:22:40.815Z,41.51
2017-06-02T06:23:40.803Z,41.7
2017-06-02T06:24:40.795Z,41.51
2017-06-02T06:25:40.780Z,41.22
2017-06-02T06:26:40.771Z,41.41
2017-06-02T06:27:40.762Z,41.31
2017-06-02T06:28:40.749Z,40.56
2017-06-02T06:29:40.734Z,40.75
2017-06-02T06:30:40.725Z,40.56
2017-06-02T06:31:40.716Z,40.26
2017-06-02T06:32:40.708Z,40.19
2017-06-02T06:33:40.702Z,39.7
2017-06-02T06:34:40.383Z,39.61
2017-06-02T06:35:40.668Z,39.61
2017-06-02T06:36:40.708Z,39.41
2017-06-02T06:37:40.648Z,39.24
2017-06-02T06:38:40.643Z,38.65
2017-06-02T06:39:40.629Z,38.65
2017-06-02T06:40:40.614Z,38.65
2017-06-02T06:41:40.605Z,38.46
2017-06-02T06:42:40.605Z,37.99
2017-06-02T06:43:40.586Z,38.17
2017-06-02T06:44:40.573Z,38.46
2017-06-02T06:45:40.565Z,38.27
2017-06-02T06:46:40.558Z,38.37
2017-06-02T06:47:40.543Z,38.19
2017-06-02T06:48:40.536Z,37.99
2017-06-02T06:49:40.532Z,38.19
2017-06-02T06:50:40.514Z,37.62
2017-06-02T06:51:40.506Z,37.16
2017-06-02T06:52:40.497Z,36
2017-06-02T06:53:40.486Z,36.57
2017-06-02T06:54:40.483Z,37.04
2017-06-02T06:55:40.468Z,36.96
2017-06-02T06:56:40.458Z,36.77
2017-06-02T06:57:40.458Z,36.77
2017-06-02T06:58:40.438Z,36.4
2017-06-02T06:59:40.428Z,36.1
2017-06-02T07:00:40.172Z,35.81
2017-06-02T07:01:40.412Z,36
2017-06-02T07:02:40.450Z,35.91
2017-06-02T07:03:40.397Z,36.57
2017-06-02T07:04:40.385Z,37.04
2017-06-02T07:05:40.376Z,37.24
2017-06-02T07:06:40.369Z,37.52
2017-06-02T07:07:40.359Z,37.92
2017-06-02T07:08:40.350Z,38.19
2017-06-02T07:09:40.336Z,38.65
2017-06-02T07:10:40.324Z,39.24
2017-06-02T07:11:40.324Z,40.09
2017-06-02T07:12:40.304Z,39.9
2017-06-02T07:13:40.293Z,40.17
2017-06-02T07:14:40.280Z,40.39
2017-06-02T07:15:40.277Z,40.56
2017-06-02T07:16:40.266Z,40.67
2017-06-02T07:17:40.255Z,40.95
2017-06-02T07:18:40.241Z,41.33
2017-06-02T07:19:39.976Z,41.61
2017-06-02T07:20:40.516Z,42.55
2017-06-02T07:21:40.204Z,42.26
2017-06-02T07:22:40.193Z,42.94
2017-06-02T07:23:40.183Z,42.94
2017-06-02T07:24:40.166Z,42.65
2017-06-02T07:25:40.161Z,42.29
2017-06-02T07:26:40.144Z,41.53
2017-06-02T07:27:40.129Z,41.33
2017-06-02T07:28:40.122Z,41.16
2017-06-02T07:29:40.107Z,40.87
2017-06-02T07:30:40.097Z,40.31
2017-06-02T07:31:40.087Z,40.6
2017-06-02T07:32:40.124Z,40.5
2017-06-02T07:33:40.073Z,40.31
2017-06-02T07:34:40.060Z,40.42
2017-06-02T07:35:40.038Z,40.23
2017-06-02T07:36:40.027Z,40.23
2017-06-02T07:37:40.018Z,40.21
2017-06-02T07:38:40.009Z,39.84
2017-06-02T07:39:39.998Z,39.84
2017-06-02T07:40:39.987Z,39.76
2017-06-02T07:41:39.982Z,39.18
2017-06-02T07:42:39.964Z,38.42
2017-06-02T07:43:39.951Z,37.74
2017-06-02T07:44:39.946Z,38.23
2017-06-02T07:45:39.940Z,38.62
2017-06-02T07:46:39.975Z,38.62
2017-06-02T07:47:39.913Z,38.79
2017-06-02T07:48:39.905Z,38.79
2017-06-02T07:49:39.896Z,37.84
2017-06-02T07:50:39.888Z,37.93
2017-06-02T07:51:39.931Z,38.42
2017-06-02T07:52:39.872Z,39.18
2017-06-02T07:53:39.857Z,39.65
2017-06-02T07:54:39.856Z,40.31
2017-06-02T07:55:39.834Z,40.11
2017-06-02T07:56:39.525Z,39.92
2017-06-02T07:57:39.814Z,39.92
2017-06-02T07:58:39.515Z,40.13
2017-06-02T07:59:39.800Z,40.06
2017-06-02T08:00:39.853Z,40.23
2017-06-02T08:01:39.771Z,39.94
2017-06-02T08:02:39.760Z,40.33
2017-06-02T08:03:39.757Z,40.72
2017-06-02T08:04:39.741Z,40.52
2017-06-02T08:05:39.726Z,40.33
2017-06-02T08:06:39.775Z,40.13
2017-06-02T08:07:39.708Z,39.84
2017-06-02T08:08:39.699Z,40.03
2017-06-02T08:09:39.685Z,39.82
2017-06-02T08:10:39.677Z,39.24
2017-06-02T08:11:39.661Z,38.87
2017-06-02T08:12:39.656Z,38.67
2017-06-02T08:13:39.639Z,37.8
2017-06-02T08:14:39.632Z,37.24
2017-06-02T08:15:39.623Z,36.94
2017-06-02T08:16:39.613Z,36.87
2017-06-02T08:17:39.660Z,36.2
2017-06-02T08:18:39.588Z,35.34
2017-06-02T08:19:39.582Z,35.05
2017-06-02T08:20:39.573Z,34.76
2017-06-02T08:21:39.560Z,34.94
2017-06-02T08:22:39.551Z,34.55
2017-06-02T08:23:39.543Z,34.94
2017-06-02T08:24:39.589Z,34.06
2017-06-02T08:25:39.516Z,34.33
2017-06-02T08:26:39.511Z,34.33
2017-06-02T08:27:39.504Z,34.14
2017-06-02T08:28:39.186Z,34.06
2017-06-02T08:29:39.476Z,32.5
2017-06-02T08:30:39.469Z,31.24
2017-06-02T08:31:39.462Z,30.83
2017-06-02T08:32:39.453Z,31.51
2017-06-02T08:33:39.486Z,32.39
2017-06-02T08:34:39.431Z,32.97
2017-06-02T08:35:39.418Z,33.17
2017-06-02T08:36:39.405Z,33.75
2017-06-02T08:37:39.400Z,33.67
2017-06-02T08:38:39.386Z,32.81
2017-06-02T08:39:39.375Z,30.18
2017-06-02T08:40:39.372Z,30.18
2017-06-02T08:41:39.362Z,30.65
2017-06-02T08:42:39.347Z,30.67
2017-06-02T08:43:39.340Z,30.38
2017-06-02T08:44:39.337Z,29.42
2017-06-02T08:45:39.318Z,28.75
2017-06-02T08:46:39.314Z,28.16
2017-06-02T08:47:39.303Z,28.07
2017-06-02T08:48:39.294Z,28.45
2017-06-02T08:49:39.338Z,28.16
2017-06-02T08:50:39.275Z,28.26
2017-06-02T08:51:39.320Z,28.16
2017-06-02T08:52:39.263Z,28.38
2017-06-02T08:53:39.256Z,28.18
2017-06-02T08:54:39.249Z,27.8
2017-06-02T08:55:39.241Z,27.8
2017-06-02T08:56:38.958Z,28.29
2017-06-02T08:57:39.221Z,28.57
2017-06-02T08:58:39.215Z,28.86
2017-06-02T08:59:39.204Z,29.33
2017-06-02T09:00:39.199Z,28.94
2017-06-02T09:01:39.191Z,28.94
2017-06-02T09:02:39.179Z,29.52
2017-06-02T09:03:39.181Z,30.08
2017-06-02T09:04:39.163Z,30.26
2017-06-02T09:05:39.151Z,30.93
2017-06-02T09:06:39.152Z,31.13
2017-06-02T09:07:39.141Z,31.9
2017-06-02T09:08:38.827Z,32.18
2017-06-02T09:09:39.127Z,32.57
2017-06-02T09:10:39.107Z,32.96
2017-06-02T09:11:39.152Z,33.14
2017-06-02T09:12:39.085Z,33.9
2017-06-02T09:13:39.123Z,33.99
2017-06-02T09:14:39.063Z,33.99
2017-06-02T09:15:39.362Z,33.9
2017-06-02T09:16:39.053Z,33.9
2017-06-02T09:17:39.033Z,33.8
2017-06-02T09:18:39.025Z,33.7
2017-06-02T09:19:39.054Z,33.62
2017-06-02T09:20:38.995Z,33.53
2017-06-02T09:21:38.985Z,32.96
2017-06-02T09:22:38.972Z,32.2
2017-06-02T09:23:38.965Z,31.45
2017-06-02T09:24:38.650Z,30.78
2017-06-02T09:25:38.639Z,30.1
2017-06-02T09:26:38.934Z,30.41
2017-06-02T09:27:38.936Z,30.02
2017-06-02T09:28:38.916Z,29.72
2017-06-02T09:29:38.913Z,29.54
2017-06-02T09:30:38.899Z,29.74
2017-06-02T09:31:38.894Z,29.27
2017-06-02T09:32:38.883Z,28.97
2017-06-02T09:33:38.875Z,28.69
2017-06-02T09:34:38.869Z,28.32
2017-06-02T09:35:38.859Z,27.44
2017-06-02T09:36:38.850Z,27.15
2017-06-02T09:37:38.844Z,27.15
2017-06-02T09:38:38.833Z,27.05
2017-06-02T09:39:38.826Z,26.87
2017-06-02T09:40:38.821Z,26.97
2017-06-02T09:41:38.814Z,26.76
2017-06-02T09:42:38.808Z,26.66
2017-06-02T09:43:38.801Z,27.33
2017-06-02T09:44:38.794Z,27.33
2017-06-02T09:45:38.785Z,27.64
2017-06-02T09:46:38.787Z,27.61
2017-06-02T09:47:38.786Z,27.9
2017-06-02T09:48:38.767Z,27.91
2017-06-02T09:49:38.766Z,27.81
2017-06-02T09:50:38.757Z,28.2
2017-06-02T09:51:38.747Z,28.3
2017-06-02T09:52:38.744Z,28.4
2017-06-02T09:53:38.739Z,28.39
2017-06-02T09:54:38.730Z,28.49
2017-06-02T09:55:38.720Z,29.06
2017-06-02T09:56:38.717Z,28.96
2017-06-02T09:57:38.761Z,29.15
2017-06-02T09:58:38.703Z,28.38
2017-06-02T09:59:38.698Z,28.29
2017-06-02T10:00:38.702Z,28.88
2017-06-02T10:01:38.682Z,28.4
2017-06-02T10:02:38.376Z,28.2
2017-06-02T10:03:38.673Z,28.52
2017-06-02T10:04:38.666Z,28.2
2017-06-02T10:05:38.663Z,28.32
2017-06-02T10:06:38.651Z,28.03
2017-06-02T10:07:38.648Z,27.34
2017-06-02T10:08:38.338Z,27.26
2017-06-02T10:09:38.641Z,27.26
2017-06-02T10:10:38.629Z,27.16
2017-06-02T10:11:38.625Z,26.68
2017-06-02T10:12:38.670Z,26.2
2017-06-02T10:13:38.613Z,26.11
2017-06-02T10:14:38.309Z,26
2017-06-02T10:15:38.605Z,26.49
2017-06-02T10:16:38.595Z,26.29
2017-06-02T10:17:38.588Z,26.59
2017-06-02T10:18:38.585Z,26.49
2017-06-02T10:19:38.590Z,26.78
2017-06-02T10:20:38.575Z,26.29
2017-06-02T10:21:38.565Z,26.77
2017-06-02T10:22:38.562Z,27.05
2017-06-02T10:23:38.560Z,27.52
2017-06-02T10:24:38.556Z,27.52
2017-06-02T10:25:38.545Z,26.93
2017-06-02T10:26:38.589Z,26.93
2017-06-02T10:27:38.529Z,27.13
2017-06-02T10:28:38.523Z,27.05
2017-06-02T10:29:38.519Z,27.54
2017-06-02T10:30:38.516Z,27.05
2017-06-02T10:31:38.513Z,27.44
2017-06-02T10:32:38.505Z,28.01
2017-06-02T10:33:38.497Z,28
2017-06-02T10:34:38.489Z,28.38
2017-06-02T10:35:38.484Z,28.38
2017-06-02T10:36:38.475Z,28.28
2017-06-02T10:37:38.483Z,27.7
2017-06-02T10:38:38.468Z,27.61
2017-06-02T10:39:38.471Z,27.12
2017-06-02T10:40:38.462Z,27.02
2017-06-02T10:41:38.448Z,26.74
2017-06-02T10:42:38.488Z,26.74
2017-06-02T10:43:38.433Z,26.84
2017-06-02T10:44:38.427Z,26.84
2017-06-02T10:45:38.419Z,26.74
2017-06-02T10:46:38.420Z,26.84
2017-06-02T10:47:38.415Z,26.84
2017-06-02T10:48:38.402Z,27.03
2017-06-02T10:49:38.401Z,27.52
2017-06-02T10:50:38.392Z,27.42
2017-06-02T10:51:38.390Z,27.13
2017-06-02T10:52:38.379Z,27.62
2017-06-02T10:53:38.377Z,27.33
2017-06-02T10:54:38.369Z,27.42
2017-06-02T10:55:38.363Z,27.03
2017-06-02T10:56:38.411Z,27.03
2017-06-02T10:57:38.351Z,26.76
2017-06-02T10:58:38.349Z,26.56
2017-06-02T10:59:38.335Z,26.66
2017-06-02T11:00:38.330Z,26.28
2017-06-02T11:01:38.322Z,26.17
2017-06-02T11:02:38.309Z,26.74
2017-06-02T11:03:38.318Z,26.92
2017-06-02T11:04:38.306Z,26.82
2017-06-02T11:05:38.304Z,26.53
2017-06-02T11:06:38.305Z,27.12
2017-06-02T11:07:38.303Z,28.08
2017-06-02T11:08:38.288Z,27.89
2017-06-02T11:09:38.276Z,28.16
2017-06-02T11:10:38.271Z,28.45
2017-06-02T11:11:38.271Z,28.28
2017-06-02T11:12:38.265Z,28.28
2017-06-02T11:13:38.255Z,28.55
2017-06-02T11:14:38.239Z,29.13
2017-06-02T11:15:38.230Z,29.03
2017-06-02T11:16:38.231Z,29.81
2017-06-02T11:17:38.220Z,29.79
2017-06-02T11:18:38.198Z,30.08
2017-06-02T11:19:38.189Z,30.26
2017-06-02T11:20:38.188Z,30.83
2017-06-02T11:21:38.169Z,30.93
2017-06-02T11:22:38.169Z,31.22
2017-06-02T11:23:38.152Z,30.94
2017-06-02T11:24:38.147Z,31.13
2017-06-02T11:25:38.131Z,31.22
2017-06-02T11:26:38.120Z,31.13
2017-06-02T11:27:38.121Z,31.61
2017-06-02T11:28:38.101Z,31.61
2017-06-02T11:29:38.090Z,31.61
2017-06-02T11:30:38.084Z,31.7
2017-06-02T11:31:38.064Z,31.79
2017-06-02T11:32:37.753Z,32.39
2017-06-02T11:33:38.046Z,32.59
2017-06-02T11:34:38.035Z,32.57
2017-06-02T11:35:38.013Z,32.67
2017-06-02T11:36:38.006Z,32.57
2017-06-02T11:37:37.993Z,32.57
2017-06-02T11:38:37.974Z,32.47
2017-06-02T11:39:37.971Z,32.2
2017-06-02T11:40:37.951Z,32
2017-06-02T11:41:37.938Z,32.1
2017-06-02T11:42:37.921Z,32.28
2017-06-02T11:43:37.911Z,32.67
2017-06-02T11:44:37.910Z,32.96
2017-06-02T11:45:37.891Z,32.76
2017-06-02T11:46:37.890Z,32.86
2017-06-02T11:47:37.865Z,33.25
2017-06-02T11:48:37.899Z,33.72
2017-06-02T11:49:37.840Z,33.04
2017-06-02T11:50:37.821Z,33.23
2017-06-02T11:51:37.816Z,33.33
2017-06-02T11:52:37.803Z,33.62
2017-06-02T11:53:37.786Z,33.53
2017-06-02T11:54:37.758Z,33.8
2017-06-02T11:55:37.756Z,34.09
2017-06-02T11:56:37.744Z,33.99
2017-06-02T11:57:37.468Z,34.19
2017-06-02T11:58:37.708Z,34.09
2017-06-02T11:59:37.692Z,34.09
2017-06-02T12:00:37.677Z,33.61
2017-06-02T12:01:37.666Z,34.87
2017-06-02T12:02:37.650Z,34.67
2017-06-02T12:03:37.637Z,34.77
2017-06-02T12:04:37.626Z,34.85
2017-06-02T12:05:37.603Z,34.87
2017-06-02T12:06:37.603Z,34.38
2017-06-02T12:07:37.630Z,34.87
2017-06-02T12:08:37.563Z,34.77
2017-06-02T12:09:37.554Z,34.67
2017-06-02T12:10:37.534Z,34.97
2017-06-02T12:11:37.519Z,34.67
2017-06-02T12:12:37.508Z,35.06
2017-06-02T12:13:37.493Z,34.97
2017-06-02T12:14:37.481Z,34.97
2017-06-02T12:15:37.468Z,33.9
2017-06-02T12:16:37.451Z,33.99
2017-06-02T12:17:37.145Z,33.8
2017-06-02T12:18:37.427Z,34.77
2017-06-02T12:19:37.411Z,34.77
2017-06-02T12:20:37.391Z,34.67
2017-06-02T12:21:37.377Z,34.67
2017-06-02T12:22:37.362Z,35.06
2017-06-02T12:23:37.349Z,34.67
2017-06-02T12:24:37.341Z,34.67
2017-06-02T12:25:37.326Z,34.67
2017-06-02T12:26:37.307Z,34.87
2017-06-02T12:27:37.290Z,34.67
2017-06-02T12:28:37.273Z,34.58
2017-06-02T12:29:37.258Z,34.97
2017-06-02T12:30:37.552Z,34.38
2017-06-02T12:31:37.281Z,34.79
2017-06-02T12:32:36.916Z,34.79
2017-06-02T12:33:37.205Z,34.03
2017-06-02T12:34:37.195Z,34.12
2017-06-02T12:35:37.174Z,34.03
2017-06-02T12:36:37.163Z,33.73
2017-06-02T12:37:37.154Z,33.73
2017-06-02T12:38:37.132Z,33.64
2017-06-02T12:39:37.116Z,33.46
2017-06-02T12:40:37.106Z,33.46
2017-06-02T12:41:37.100Z,32.87
2017-06-02T12:42:37.072Z,33.07
2017-06-02T12:43:37.061Z,32.78
2017-06-02T12:44:37.047Z,32.87
2017-06-02T12:45:37.040Z,32.68
2017-06-02T12:46:37.019Z,32.68
2017-06-02T12:47:37.006Z,32.59
2017-06-02T12:48:36.996Z,32.59
2017-06-02T12:49:36.980Z,32.97
2017-06-02T12:50:36.965Z,32.97
2017-06-02T12:51:36.653Z,32.59
2017-06-02T12:52:36.936Z,32.49
2017-06-02T12:53:36.624Z,32.49
2017-06-02T12:54:36.917Z,32.87
2017-06-02T12:55:36.899Z,32.87